Pagrindinis puslapis
METAR-TAF:

METAR-TAF

Oro uostai :

Tunisas, Tunisas

platuma: 36-50N, ilguma: 010-14E, Aukštis: 3 m

Dabartinis oras

Ataskaita buvo paskelbta 15 minutes, ne 19:30 UTC
Vėjas 2 kt iš Vakarų/Pietvakarių
Temperatūra 12°C
Drėgmė 71%
Slėgis 1027 hPa
Matomumas 10 km arba daugiau
Mažai debesys ne aukštis 2600 ft

METAR: DTTA 181930Z 24002KT 9999 FEW026 12/07 Q1027

Laikas: 20:45 (19:45 UTC)

Prognozė

Ataskaita buvo paskelbta 2 valandos ir 45 minutes, ne 17:00 UTC
Prognozė galioja nuo 18 metu 18 UTC su 19 metu 18 UTC
Vėjas 5 kt iš Vakarų
Matomumas 10 km arba daugiau
Išsisklaidę debesys ne aukštis 2600 ft
Tapsmas
nuo 19 metu 10 UTC su 19 metu 12 UTC
Vėjas 12 kt iš Pietryčių

TAF: DTTA 181700Z 1818/1918 26005KT 9999 SCT026 BECMG 1910/1912 13012KT

Orai ataskaitas ir orų prognozės (METAR, TAF).

turimą stotys yra geltonos ir raudonos taškus žemėlapyje.

Perkelti pele per norėdami pamatyti stoties vardą.

Tada spustelėkite, norėdami matyti oro stebėjimo ir prognozės.

Norėdami pakeisti žemėlapį: spustelėkite ant žalios mygtukų su juodo kryžiaus žemyn,; žalią mygtuką su brūkšneliu, jei norite nutolinti; arba žalių rodyklių gretimoms žemėlapius.


METAR-TAF: